Time;durP1;ratioP1;P1;durP2;ratioP2;P2;SDS_P1;SDS_P2;PMS_P1;PMS_P2;Temp;Humidity;BMP_temperature;BMP_pressure;BME280_temperature;BME280_humidity;BME280_pressure;Samples;Min_cycle;Max_cycle;Signal;HPM_P1;HPM_P2
2021/08/07 00:00:45;;;;;;;6.05;1.50;;;;;;;13.86;95.62;98021.38;5011525;28;20030;-72
2021/08/07 00:03:10;;;;;;;4.50;1.30;;;;;;;13.94;95.92;98027.28;5011742;28;20022;-72
2021/08/07 00:05:35;;;;;;;2.60;1.30;;;;;;;13.83;96.63;98022.69;5008841;28;20045;-72
2021/08/07 00:08:01;;;;;;;4.68;1.55;;;;;;;13.64;97.03;98016.63;5001163;28;20054;-72
2021/08/07 00:10:26;;;;;;;5.13;1.45;;;;;;;13.65;98.07;98014.72;5004168;28;20480;-72
2021/08/07 00:12:52;;;;;;;3.28;1.27;;;;;;;13.60;97.70;98018.19;5008322;28;20034;-74
2021/08/07 00:15:17;;;;;;;2.80;1.50;;;;;;;13.49;97.89;97997.31;5008278;28;20037;-72
2021/08/07 00:17:42;;;;;;;4.03;1.27;;;;;;;13.68;98.04;98031.41;5010968;28;20084;-72
2021/08/07 00:20:08;;;;;;;1.58;1.13;;;;;;;13.59;97.52;97994.78;5005028;28;20038;-70
2021/08/07 00:22:34;;;;;;;1.55;1.20;;;;;;;14.06;96.15;98029.91;4990190;28;20031;-72
2021/08/07 00:24:59;;;;;;;2.30;1.40;;;;;;;14.02;95.43;98012.44;5023455;28;20034;-72
2021/08/07 00:27:25;;;;;;;1.55;1.10;;;;;;;13.85;94.46;97998.00;5009435;28;20029;-71
2021/08/07 00:29:50;;;;;;;3.53;1.30;;;;;;;13.81;94.64;98012.06;5022708;28;20083;-71
2021/08/07 00:32:15;;;;;;;2.78;1.10;;;;;;;13.68;95.23;98009.66;4997394;28;20103;-72
2021/08/07 00:34:41;;;;;;;2.58;1.40;;;;;;;13.50;95.30;98009.84;5009851;28;20032;-72
2021/08/07 00:37:08;;;;;;;3.15;1.23;;;;;;;13.50;95.69;98009.84;5010186;28;20125;-71
2021/08/07 00:39:33;;;;;;;5.70;1.30;;;;;;;13.41;96.13;97992.25;5007345;28;20026;-71
2021/08/07 00:41:58;;;;;;;1.67;1.05;;;;;;;13.37;96.77;97998.19;5007723;28;20045;-71
2021/08/07 00:44:24;;;;;;;3.03;1.30;;;;;;;13.28;97.41;97988.78;5013377;28;20029;-71
2021/08/07 00:46:49;;;;;;;2.97;1.17;;;;;;;13.28;97.78;98004.22;5011843;28;20026;-72
2021/08/07 00:49:14;;;;;;;2.83;1.30;;;;;;;13.10;97.98;97964.47;5010507;28;20093;-71
2021/08/07 00:51:40;;;;;;;3.10;1.65;;;;;;;13.32;98.78;97999.97;5012289;28;20033;-71
2021/08/07 00:54:05;;;;;;;2.50;1.30;;;;;;;13.27;98.65;97987.09;5012577;28;20041;-71
2021/08/07 00:56:31;;;;;;;2.85;1.33;;;;;;;13.40;98.95;97999.59;5012080;28;20427;-72
2021/08/07 00:58:56;;;;;;;4.05;1.48;;;;;;;13.49;99.11;97995.44;5012780;28;20018;-71
2021/08/07 01:01:27;;;;;;;3.22;1.25;;;;;;;13.33;97.90;97985.31;5007878;28;20030;-72
2021/08/07 01:03:54;;;;;;;2.83;1.20;;;;;;;13.44;97.77;97986.34;5011361;28;20033;-71
2021/08/07 01:06:39;;;;;;;2.72;1.08;;;;;;;13.61;97.58;98002.72;5012940;28;20475;-71
2021/08/07 01:09:15;;;;;;;2.00;1.15;;;;;;;13.50;96.99;98001.69;5012957;28;20037;-72
2021/08/07 01:12:03;;;;;;;4.38;1.30;;;;;;;13.34;95.91;97995.13;5001744;28;20033;-72
2021/08/07 01:14:34;;;;;;;2.28;1.10;;;;;;;13.32;96.06;97994.53;4993264;28;20027;-71
2021/08/07 01:17:02;;;;;;;1.60;1.10;;;;;;;13.09;96.77;97979.09;4993575;28;20333;-71
2021/08/07 01:19:33;;;;;;;6.28;1.40;;;;;;;13.14;97.51;97976.47;4996398;28;20025;-71
2021/08/07 01:22:00;;;;;;;4.50;1.00;;;;;;;13.20;97.27;97974.69;5012178;28;20105;-71
2021/08/07 01:24:37;;;;;;;3.97;1.40;;;;;;;13.36;97.12;97992.97;5007749;28;20526;-71
2021/08/07 01:27:25;;;;;;;2.22;1.33;;;;;;;13.54;96.94;97984.63;5011634;28;20029;-71
2021/08/07 01:29:53;;;;;;;2.50;0.98;;;;;;;13.46;97.22;97959.75;5008539;28;20069;-70
2021/08/07 01:32:26;;;;;;;2.55;1.20;;;;;;;13.74;96.31;97976.06;5000712;28;20022;-73
2021/08/07 01:34:54;;;;;;;1.60;1.20;;;;;;;13.74;96.07;97970.63;5025983;28;20029;-71
2021/08/07 01:37:20;;;;;;;1.98;1.10;;;;;;;13.64;94.58;97958.72;5012391;28;20522;-70
2021/08/07 01:39:50;;;;;;;2.53;1.23;;;;;;;13.70;95.36;97952.31;5011705;28;20042;-71
2021/08/07 01:42:16;;;;;;;3.83;1.15;;;;;;;13.78;96.28;97966.34;5007829;28;20101;-70
2021/08/07 01:44:41;;;;;;;4.80;1.27;;;;;;;13.70;95.92;97944.16;5010654;28;20461;-71
2021/08/07 01:47:35;;;;;;;3.20;1.10;;;;;;;13.81;95.39;97954.16;5012420;28;20109;-71
2021/08/07 01:50:10;;;;;;;1.90;1.05;;;;;;;14.00;93.95;97971.88;5003833;28;20038;-71
2021/08/07 01:52:41;;;;;;;8.52;1.15;;;;;;;13.92;92.03;97975.00;5008755;28;20026;-71
2021/08/07 01:55:12;;;;;;;4.47;1.35;;;;;;;13.76;91.57;97973.09;5012175;28;20060;-70
2021/08/07 01:57:42;;;;;;;4.13;1.13;;;;;;;13.45;92.99;97936.38;5011615;28;20349;-71
2021/08/07 02:00:12;;;;;;;2.15;1.10;;;;;;;13.31;94.40;97919.56;5010275;28;20037;-71
2021/08/07 02:02:39;;;;;;;3.15;1.35;;;;;;;13.40;95.57;97958.00;5011270;28;20040;-71
2021/08/07 02:05:05;;;;;;;2.63;1.15;;;;;;;13.34;96.22;97943.50;5010473;28;20041;-71
2021/08/07 02:07:31;;;;;;;2.15;1.10;;;;;;;13.31;96.57;97928.53;5010072;28;20423;-71
2021/08/07 02:09:57;;;;;;;6.63;1.67;;;;;;;13.53;96.74;97941.41;5010963;28;20026;-71
2021/08/07 02:12:23;;;;;;;2.60;1.20;;;;;;;13.45;96.58;97922.78;4995477;28;20051;-71
2021/08/07 02:14:51;;;;;;;3.85;1.15;;;;;;;13.61;96.38;97945.63;5011500;28;20036;-71
2021/08/07 02:17:17;;;;;;;3.20;1.30;;;;;;;13.66;95.99;97929.41;5011972;28;20106;-71
2021/08/07 02:19:43;;;;;;;2.88;1.23;;;;;;;13.89;95.33;97942.06;5011694;28;20681;-71
2021/08/07 02:22:10;;;;;;;2.45;1.08;;;;;;;13.81;94.81;97938.66;5012002;28;20022;-72
2021/08/07 02:24:35;;;;;;;5.03;1.48;;;;;;;13.99;94.30;97939.47;5011488;28;20036;-73
2021/08/07 02:27:01;;;;;;;1.27;0.98;;;;;;;14.06;93.67;97945.59;5011687;28;20025;-71
2021/08/07 02:29:29;;;;;;;5.93;1.10;;;;;;;13.98;93.91;97929.69;4997837;28;20110;-71
2021/08/07 02:31:54;;;;;;;4.53;1.00;;;;;;;14.03;94.07;97929.78;5006378;28;20057;-71
2021/08/07 02:34:20;;;;;;;2.92;1.40;;;;;;;13.86;94.62;97923.50;5009734;28;20403;-71
2021/08/07 02:36:47;;;;;;;4.43;1.75;;;;;;;13.82;95.25;97928.59;4994655;28;20026;-71
2021/08/07 02:39:14;;;;;;;3.08;1.00;;;;;;;13.81;95.67;97932.41;5011515;28;20044;-71
2021/08/07 02:41:40;;;;;;;8.77;1.40;;;;;;;13.80;95.46;97917.16;5008246;28;20087;-71
2021/08/07 02:44:06;;;;;;;4.88;1.17;;;;;;;13.96;94.56;97910.91;5008813;28;20037;-71
2021/08/07 02:46:32;;;;;;;2.97;1.25;;;;;;;14.07;93.79;97919.22;5010105;28;20026;-71
2021/08/07 02:48:58;;;;;;;5.03;1.27;;;;;;;13.97;94.07;97909.00;5010999;28;20037;-71
2021/08/07 02:51:25;;;;;;;5.03;1.10;;;;;;;13.95;94.52;97900.28;5014488;28;20021;-71
2021/08/07 02:53:51;;;;;;;2.55;1.40;;;;;;;13.82;94.51;97895.97;5015096;28;20026;-71
2021/08/07 02:56:17;;;;;;;2.20;1.45;;;;;;;13.85;94.58;97895.50;5026887;28;20030;-71
2021/08/07 02:58:42;;;;;;;3.90;1.17;;;;;;;13.89;94.64;97912.16;5008242;28;20393;-71
2021/08/07 03:01:08;;;;;;;3.33;1.50;;;;;;;13.85;94.92;97910.97;5007934;28;20062;-71
2021/08/07 03:03:33;;;;;;;3.70;1.10;;;;;;;13.77;95.12;97912.22;5011383;28;20522;-71
2021/08/07 03:05:59;;;;;;;3.20;1.30;;;;;;;13.77;96.32;97913.03;5015188;28;20030;-71
2021/08/07 03:08:24;;;;;;;3.60;1.15;;;;;;;13.61;95.92;97892.09;5014779;28;20033;-71
2021/08/07 03:10:50;;;;;;;2.70;1.10;;;;;;;13.59;96.19;97888.78;5007287;28;20478;-71
2021/08/07 03:13:15;;;;;;;1.92;1.08;;;;;;;13.77;96.06;97921.19;5000091;28;20026;-71
2021/08/07 03:15:41;;;;;;;2.35;1.10;;;;;;;13.73;96.14;97917.31;5008088;28;20018;-71
2021/08/07 03:18:06;;;;;;;3.60;1.00;;;;;;;13.85;95.93;97921.84;5015174;28;20084;-72
2021/08/07 03:20:32;;;;;;;3.47;1.15;;;;;;;13.83;95.85;97905.78;5013959;28;20095;-71
2021/08/07 03:23:05;;;;;;;7.95;1.23;;;;;;;13.84;96.23;97906.63;5014725;28;20399;-71
2021/08/07 03:25:30;;;;;;;2.53;1.13;;;;;;;13.72;96.15;97885.75;5012765;28;20112;-71
2021/08/07 03:27:56;;;;;;;2.70;1.10;;;;;;;13.63;96.15;97870.94;5014840;28;20112;-71
2021/08/07 03:30:22;;;;;;;1.40;1.10;;;;;;;13.81;96.45;97906.03;5015013;28;20025;-71
2021/08/07 03:32:47;;;;;;;2.75;1.40;;;;;;;13.82;96.44;97902.25;5014374;28;20057;-71
2021/08/07 03:35:13;;;;;;;1.67;1.10;;;;;;;13.85;96.13;97913.69;5013330;28;20096;-71
2021/08/07 03:37:38;;;;;;;3.38;1.60;;;;;;;13.77;95.41;97904.88;5013323;28;20117;-71
2021/08/07 03:40:04;;;;;;;1.90;1.02;;;;;;;13.62;96.05;97877.44;5014438;28;20014;-71
2021/08/07 03:42:29;;;;;;;5.72;1.30;;;;;;;13.61;95.96;97867.63;5010782;28;20049;-71
2021/08/07 03:44:55;;;;;;;2.30;1.02;;;;;;;13.70;96.16;97879.75;5027175;28;20037;-71
2021/08/07 03:47:21;;;;;;;1.05;0.90;;;;;;;13.82;95.95;97893.25;5014377;28;20080;-71
2021/08/07 03:49:46;;;;;;;9.88;1.42;;;;;;;14.00;94.96;97892.19;5010937;28;20038;-71
2021/08/07 03:52:12;;;;;;;4.60;1.40;;;;;;;13.96;94.86;97877.44;5015433;28;20048;-71
2021/08/07 03:54:37;;;;;;;4.72;1.17;;;;;;;13.76;94.38;97851.59;5013798;28;20022;-71
2021/08/07 03:57:02;;;;;;;3.80;1.20;;;;;;;13.84;94.92;97882.16;5013726;28;20034;-71
2021/08/07 03:59:28;;;;;;;3.00;1.00;;;;;;;13.67;95.39;97857.66;5012931;28;20526;-71
2021/08/07 04:01:53;;;;;;;1.98;1.30;;;;;;;13.87;95.31;97878.94;5014257;28;20549;-71
2021/08/07 04:04:18;;;;;;;1.88;1.20;;;;;;;13.77;95.86;97880.41;5005456;28;20435;-71
2021/08/07 04:06:43;;;;;;;5.05;1.35;;;;;;;13.76;95.88;97873.34;5010106;28;20037;-71
2021/08/07 04:09:09;;;;;;;2.78;1.17;;;;;;;13.88;95.64;97861.53;5010233;28;20022;-71
2021/08/07 04:11:34;;;;;;;4.28;1.60;;;;;;;13.82;95.55;97857.91;5013994;28;20098;-71
2021/08/07 04:13:59;;;;;;;4.38;1.38;;;;;;;13.67;96.14;97861.19;5012210;28;20030;-71
2021/08/07 04:16:25;;;;;;;1.83;1.38;;;;;;;13.61;96.93;97853.22;5012952;28;20022;-71
2021/08/07 04:18:50;;;;;;;9.18;2.22;;;;;;;13.57;97.15;97855.59;5008808;28;20380;-72
2021/08/07 04:21:16;;;;;;;3.80;1.30;;;;;;;13.47;97.09;97848.13;5008437;28;20040;-72
2021/08/07 04:23:41;;;;;;;4.78;1.38;;;;;;;13.64;97.44;97861.69;5013662;28;20021;-73
2021/08/07 04:26:06;;;;;;;3.80;1.20;;;;;;;13.66;96.67;97881.31;5013873;28;20117;-73
2021/08/07 04:28:31;;;;;;;3.30;1.20;;;;;;;13.66;97.18;97875.88;5012818;28;20026;-73
2021/08/07 04:30:57;;;;;;;5.85;1.40;;;;;;;13.74;97.18;97885.53;5013103;28;20060;-73
2021/08/07 04:33:22;;;;;;;3.50;1.30;;;;;;;13.76;96.99;97870.63;5012995;28;20029;-73
2021/08/07 04:35:48;;;;;;;2.08;1.55;;;;;;;13.73;97.48;97871.13;5012317;28;20033;-73
2021/08/07 04:38:13;;;;;;;5.43;1.30;;;;;;;13.77;97.28;97874.16;5012765;28;20423;-73
2021/08/07 04:40:38;;;;;;;3.17;1.15;;;;;;;13.67;96.90;97863.91;5009504;28;20034;-71
2021/08/07 04:43:04;;;;;;;2.20;1.27;;;;;;;13.68;96.82;97859.34;5002379;28;20073;-70
2021/08/07 04:45:29;;;;;;;3.53;1.33;;;;;;;13.78;96.57;97868.47;5011173;28;20056;-73
2021/08/07 04:48:04;;;;;;;4.70;1.38;;;;;;;13.97;95.34;97863.59;5008204;28;20118;-73
2021/08/07 04:50:32;;;;;;;5.57;1.60;;;;;;;13.91;94.55;97831.97;5011140;28;20037;-73
2021/08/07 04:52:59;;;;;;;2.40;1.23;;;;;;;14.12;94.56;97845.84;5005785;28;20037;-72
2021/08/07 04:55:25;;;;;;;4.13;1.60;;;;;;;14.27;94.22;97861.59;5004866;28;20034;-74
2021/08/07 04:57:51;;;;;;;2.83;1.30;;;;;;;14.10;93.74;97831.72;5007003;28;20022;-73
2021/08/07 05:00:17;;;;;;;2.03;1.42;;;;;;;14.13;93.14;97817.59;5013124;28;20040;-73
2021/08/07 05:02:45;;;;;;;4.18;1.17;;;;;;;14.18;93.41;97810.34;5013485;28;20077;-74
2021/08/07 05:05:12;;;;;;;7.00;1.42;;;;;;;14.61;92.42;97848.75;5012283;28;20053;-70
2021/08/07 05:07:37;;;;;;;1.52;1.10;;;;;;;14.66;92.01;97833.28;4995142;28;20034;-73
2021/08/07 05:10:04;;;;;;;2.75;1.30;;;;;;;14.99;90.99;97861.47;5009932;28;20022;-74
2021/08/07 05:12:29;;;;;;;1.52;1.00;;;;;;;15.01;90.42;97859.31;5002833;28;20033;-74
2021/08/07 05:14:55;;;;;;;2.65;1.23;;;;;;;15.15;89.49;97851.56;5010496;28;20120;-74
2021/08/07 05:17:22;;;;;;;3.00;1.10;;;;;;;15.24;88.52;97843.75;5011610;28;20487;-73
2021/08/07 05:19:48;;;;;;;2.35;1.35;;;;;;;15.48;88.04;97864.16;5012194;28;20092;-71
2021/08/07 05:22:13;;;;;;;1.67;1.30;;;;;;;15.50;86.69;97870.16;5012570;28;20021;-73
2021/08/07 05:24:38;;;;;;;3.22;1.40;;;;;;;15.68;86.14;97871.69;5005514;28;20026;-73
2021/08/07 05:27:04;;;;;;;4.25;1.10;;;;;;;15.61;86.50;97860.16;5010669;28;20036;-71
2021/08/07 05:29:29;;;;;;;2.13;1.08;;;;;;;15.70;85.59;97868.75;5006348;28;20029;-70
2021/08/07 05:31:54;;;;;;;6.45;1.40;;;;;;;15.63;87.04;97876.28;5008993;28;20038;-70
2021/08/07 05:34:20;;;;;;;3.13;1.10;;;;;;;15.40;87.62;97853.69;5008005;28;20022;-70
2021/08/07 05:36:45;;;;;;;1.55;1.05;;;;;;;15.41;88.35;97869.00;5004527;28;20035;-72
2021/08/07 05:39:10;;;;;;;4.28;1.10;;;;;;;15.40;85.61;97823.72;5006651;28;20057;-70
2021/08/07 05:41:36;;;;;;;1.92;1.17;;;;;;;15.41;86.09;97827.28;5015096;28;20487;-72
2021/08/07 05:44:01;;;;;;;3.53;1.27;;;;;;;15.50;86.78;97853.81;5018745;28;20081;-72
2021/08/07 05:46:26;;;;;;;6.50;1.75;;;;;;;15.40;86.29;97823.72;5016399;28;20057;-72
2021/08/07 05:48:54;;;;;;;2.80;1.30;;;;;;;15.76;86.29;97854.06;5008923;28;20038;-70
2021/08/07 05:51:21;;;;;;;1.63;0.90;;;;;;;16.04;86.92;97858.38;5015442;28;20050;-72
2021/08/07 05:53:46;;;;;;;4.57;1.17;;;;;;;16.23;86.22;97842.41;5011920;28;22043;-72
2021/08/07 05:56:12;;;;;;;2.42;0.95;;;;;;;16.30;86.24;97825.81;5004586;28;20029;-75
2021/08/07 05:58:37;;;;;;;6.22;0.90;;;;;;;16.58;85.14;97843.69;5014632;28;20026;-71
2021/08/07 06:01:07;;;;;;;3.22;0.88;;;;;;;16.57;82.03;97848.31;5015478;28;20033;-69
2021/08/07 06:03:33;;;;;;;2.20;0.90;;;;;;;16.69;81.17;97861.78;5013950;28;20026;-69
2021/08/07 06:05:59;;;;;;;3.00;1.17;;;;;;;16.94;79.44;97860.25;5010750;28;20132;-70
2021/08/07 06:08:24;;;;;;;4.47;1.00;;;;;;;17.13;79.30;97855.13;5012189;28;20535;-69
2021/08/07 06:10:50;;;;;;;4.47;0.98;;;;;;;17.88;75.92;97850.06;5001941;28;20037;-69
2021/08/07 06:13:15;;;;;;;1.83;1.10;;;;;;;18.14;73.68;97870.03;5012210;28;20079;-69
2021/08/07 06:15:40;;;;;;;3.30;0.90;;;;;;;18.22;73.60;97844.81;5009163;28;20018;-69
2021/08/07 06:18:06;;;;;;;2.72;1.00;;;;;;;18.28;73.44;97859.31;5017206;28;20053;-69
2021/08/07 06:20:31;;;;;;;3.60;1.05;;;;;;;18.35;73.49;97863.41;5014740;28;20105;-70
2021/08/07 06:22:57;;;;;;;3.47;1.00;;;;;;;18.36;73.24;97853.28;5012948;28;20061;-69
2021/08/07 06:25:23;;;;;;;1.50;0.80;;;;;;;18.08;74.22;97852.78;5012721;28;20083;-69
2021/08/07 06:27:55;;;;;;;2.25;1.00;;;;;;;17.84;75.35;97841.59;5014773;28;20057;-69
2021/08/07 06:30:22;;;;;;;5.07;1.20;;;;;;;17.80;75.71;97837.75;5012138;28;20076;-70
2021/08/07 06:32:47;;;;;;;2.70;1.00;;;;;;;17.95;75.98;97845.94;5009275;28;20048;-75
2021/08/07 06:35:13;;;;;;;4.47;1.20;;;;;;;18.49;73.91;97828.03;5026938;28;20105;-71
2021/08/07 06:37:39;;;;;;;2.95;1.05;;;;;;;20.09;69.00;97845.22;5025948;28;20050;-68
2021/08/07 06:40:05;;;;;;;2.03;0.82;;;;;;;21.14;64.36;97845.44;5012631;28;20130;-72
2021/08/07 06:42:31;;;;;;;1.63;0.90;;;;;;;21.51;63.74;97855.69;5260415;23;20418;-69
2021/08/07 06:44:56;;;;;;;2.10;0.90;;;;;;;20.95;64.89;97859.97;5032788;28;20085;-70
2021/08/07 06:47:21;;;;;;;2.33;0.82;;;;;;;20.50;67.48;97842.09;5022342;28;20025;-71
2021/08/07 06:49:47;;;;;;;3.08;1.02;;;;;;;20.19;67.77;97836.09;5019297;28;20398;-71
2021/08/07 06:52:12;;;;;;;1.52;0.75;;;;;;;19.96;68.23;97824.75;5026706;28;20168;-72
2021/08/07 06:54:37;;;;;;;2.97;0.90;;;;;;;20.08;68.37;97830.69;5033174;28;20045;-69
2021/08/07 06:57:03;;;;;;;3.28;0.80;;;;;;;20.64;66.01;97821.06;5031343;28;20035;-70
2021/08/07 06:59:28;;;;;;;2.20;1.02;;;;;;;22.91;58.70;97809.66;5029474;28;20030;-70
2021/08/07 07:01:54;;;;;;;2.53;1.00;;;;;;;26.03;49.74;97792.09;5027783;28;20030;-69
2021/08/07 07:04:19;;;;;;;3.40;0.70;;;;;;;26.34;47.03;97791.84;5025811;28;20061;-69
2021/08/07 07:06:45;;;;;;;4.68;1.10;;;;;;;26.89;46.55;97793.72;5028165;28;20040;-71
2021/08/07 07:09:10;;;;;;;2.63;0.93;;;;;;;28.65;42.09;97804.97;5030094;28;20029;-69
2021/08/07 07:11:37;;;;;;;1.80;0.70;;;;;;;31.85;37.53;97807.66;5031805;28;20026;-71
2021/08/07 07:14:03;;;;;;;2.83;0.75;;;;;;;33.00;34.35;97793.78;5030843;28;20026;-71
2021/08/07 07:16:30;;;;;;;3.38;1.00;;;;;;;33.38;32.70;97803.97;5029849;28;20037;-74
2021/08/07 07:18:56;;;;;;;2.75;0.77;;;;;;;31.87;34.22;97789.34;5030871;28;20031;-73
2021/08/07 07:21:21;;;;;;;4.82;0.80;;;;;;;32.18;34.06;97775.56;5027915;28;20120;-72
2021/08/07 07:23:46;;;;;;;2.65;0.60;;;;;;;31.91;33.65;97777.41;5021228;28;20030;-71
2021/08/07 07:26:11;;;;;;;3.97;0.80;;;;;;;31.32;34.74;97779.38;5024703;28;20053;-70
2021/08/07 07:28:37;;;;;;;2.70;0.75;;;;;;;29.24;37.44;97787.81;5030596;28;20078;-75
2021/08/07 07:31:02;;;;;;;2.90;0.80;;;;;;;27.68;41.06;97813.44;5026127;28;20056;-70
2021/08/07 07:33:28;;;;;;;3.22;0.80;;;;;;;26.69;43.42;97811.13;5019227;28;20021;-68
2021/08/07 07:35:54;;;;;;;1.95;0.65;;;;;;;26.52;44.13;97816.78;5029695;28;20030;-71
2021/08/07 07:38:19;;;;;;;2.13;0.60;;;;;;;24.92;47.34;97825.72;5029009;28;20463;-70
2021/08/07 07:40:44;;;;;;;4.60;1.02;;;;;;;23.71;50.34;97836.88;5035382;28;20589;-74
2021/08/07 07:43:10;;;;;;;1.63;0.80;;;;;;;22.50;53.66;97838.06;5037270;28;20021;-78
2021/08/07 07:45:35;;;;;;;2.35;1.05;;;;;;;21.57;57.02;97843.50;5032972;28;20022;-74
2021/08/07 07:48:00;;;;;;;2.78;0.93;;;;;;;21.26;57.47;97842.28;5033282;28;20029;-72
2021/08/07 07:50:26;;;;;;;1.88;0.90;;;;;;;20.97;59.00;97848.69;5031630;28;20113;-64
2021/08/07 07:52:51;;;;;;;3.13;0.90;;;;;;;20.55;60.49;97844.81;5025247;28;20383;-62
2021/08/07 07:55:16;;;;;;;2.08;0.68;;;;;;;20.44;60.86;97848.75;5025921;28;20040;-64
2021/08/07 07:57:42;;;;;;;4.70;0.88;;;;;;;20.22;61.66;97846.47;5027933;28;20075;-64
2021/08/07 08:00:08;;;;;;;4.32;0.80;;;;;;;20.17;61.89;97855.59;5027419;28;20087;-64
2021/08/07 08:02:33;;;;;;;5.40;1.00;;;;;;;19.97;63.60;97858.53;5028320;28;20402;-66
2021/08/07 08:04:58;;;;;;;3.92;1.20;;;;;;;20.08;63.57;97857.34;5027175;28;20124;-70
2021/08/07 08:07:24;;;;;;;4.45;1.50;;;;;;;20.37;62.99;97824.34;5030407;28;20037;-69
2021/08/07 08:09:49;;;;;;;1.42;0.73;;;;;;;20.83;61.81;97823.88;5036129;28;20025;-72
2021/08/07 08:12:15;;;;;;;2.72;1.10;;;;;;;24.21;53.21;97790.63;5033086;28;20037;-69
2021/08/07 08:14:40;;;;;;;4.57;0.88;;;;;;;26.65;46.81;97761.06;5030414;28;20021;-69
2021/08/07 08:17:06;;;;;;;2.85;0.70;;;;;;;25.91;47.43;97767.84;5032694;28;20029;-68
2021/08/07 08:19:32;;;;;;;2.90;0.95;;;;;;;25.39;49.82;97767.88;5034389;28;20029;-70
2021/08/07 08:21:57;;;;;;;3.08;0.70;;;;;;;26.57;45.07;97761.13;5029854;28;20017;-70
2021/08/07 08:24:23;;;;;;;1.13;0.80;;;;;;;25.97;45.14;97776.78;5033057;28;20383;-75
2021/08/07 08:26:48;;;;;;;2.20;1.05;;;;;;;28.12;42.37;97768.59;5033321;28;20418;-74
2021/08/07 08:29:13;;;;;;;2.45;0.80;;;;;;;28.26;41.06;97762.69;5030727;28;20021;-71
2021/08/07 08:31:39;;;;;;;2.08;0.77;;;;;;;26.19;44.55;97734.97;5024679;28;20111;-71
2021/08/07 08:34:04;;;;;;;2.72;0.80;;;;;;;25.89;45.75;97772.09;5030023;28;20032;-68
2021/08/07 08:36:30;;;;;;;4.25;1.00;;;;;;;25.19;47.61;97768.50;5029426;28;20490;-69
2021/08/07 08:38:55;;;;;;;2.97;0.77;;;;;;;24.40;47.79;97778.50;5034840;28;20026;-69
2021/08/07 08:41:23;;;;;;;3.85;1.00;;;;;;;23.61;49.07;97778.03;5032330;28;20076;-73
2021/08/07 08:43:51;;;;;;;7.70;1.73;;;;;;;23.47;48.65;97780.00;5023342;28;20029;-69
2021/08/07 08:46:16;;;;;;;5.35;2.63;;;;;;;23.34;49.85;97762.41;5031501;28;20099;-75
2021/08/07 08:48:42;;;;;;;3.67;1.65;;;;;;;23.71;50.97;97765.06;5033046;28;20064;-72
2021/08/07 08:51:08;;;;;;;3.85;1.55;;;;;;;24.14;49.65;97768.13;5029681;28;20107;-73
2021/08/07 08:53:41;;;;;;;3.55;0.68;;;;;;;24.71;49.35;97765.47;5023709;28;20018;-75
2021/08/07 08:56:07;;;;;;;3.28;0.80;;;;;;;25.41;48.76;97764.75;5031168;28;20025;-72
2021/08/07 08:58:35;;;;;;;1.35;0.60;;;;;;;26.53;44.63;97751.81;5032876;28;20045;-71
2021/08/07 09:01:05;;;;;;;2.63;0.70;;;;;;;26.89;43.64;97742.97;5025853;28;20068;-71
2021/08/07 09:03:31;;;;;;;2.85;0.80;;;;;;;26.26;43.57;97756.63;5028739;28;20478;-74
2021/08/07 09:05:56;;;;;;;1.52;0.68;;;;;;;25.72;45.09;97759.03;5031513;28;20032;-74
2021/08/07 09:08:21;;;;;;;2.30;0.85;;;;;;;25.66;45.39;97758.38;5031655;28;20448;-74
2021/08/07 09:10:47;;;;;;;2.40;0.82;;;;;;;25.64;45.14;97762.63;5031444;28;20167;-75
2021/08/07 09:13:20;;;;;;;2.08;0.90;;;;;;;25.12;45.52;97766.16;5032799;28;20082;-75
2021/08/07 09:15:47;;;;;;;5.68;1.00;;;;;;;24.78;47.11;97750.34;5033191;28;20029;-75
2021/08/07 09:18:18;;;;;;;2.38;0.90;;;;;;;24.77;47.38;97757.00;5033012;28;20021;-74
2021/08/07 09:20:46;;;;;;;1.80;0.60;;;;;;;24.55;47.51;97749.63;5032150;28;20036;-73
2021/08/07 09:23:12;;;;;;;2.75;0.88;;;;;;;23.62;50.89;97746.50;5030291;28;20116;-72
2021/08/07 09:25:40;;;;;;;2.17;0.90;;;;;;;23.70;50.92;97741.38;5034531;28;20529;-72
2021/08/07 09:28:06;;;;;;;4.40;1.00;;;;;;;23.89;51.24;97732.88;5029280;28;20104;-70
2021/08/07 09:30:38;;;;;;;1.52;0.70;;;;;;;24.31;48.90;97745.28;5031676;28;20487;-70
2021/08/07 09:33:10;;;;;;;2.92;1.00;;;;;;;24.21;48.20;97734.53;5032560;28;20071;-75
2021/08/07 09:35:43;;;;;;;4.03;1.00;;;;;;;24.47;47.53;97737.38;5026938;28;20037;-75
2021/08/07 09:38:23;;;;;;;1.80;0.90;;;;;;;24.90;46.74;97737.50;5027045;28;20040;-75
2021/08/07 09:41:03;;;;;;;2.38;0.73;;;;;;;25.99;44.34;97733.75;5021199;28;20025;-74
2021/08/07 09:43:40;;;;;;;2.17;0.63;;;;;;;26.89;43.32;97729.91;5036508;28;20025;-75
2021/08/07 09:46:12;;;;;;;1.90;0.73;;;;;;;27.86;41.19;97732.72;5029873;28;20502;-75
2021/08/07 09:48:47;;;;;;;2.35;0.60;;;;;;;27.92;41.38;97736.91;5019895;28;20479;-75
2021/08/07 09:51:21;;;;;;;3.28;0.77;;;;;;;27.00;42.46;97724.75;5031845;28;20052;-75
2021/08/07 09:54:02;;;;;;;1.38;0.80;;;;;;;26.06;44.61;97744.31;5030410;28;20415;-75
2021/08/07 09:56:50;;;;;;;2.35;1.02;;;;;;;25.68;45.14;97758.06;5030392;28;20068;-75
2021/08/07 09:59:18;;;;;;;2.03;0.70;;;;;;;25.41;44.89;97751.72;5030296;28;20021;-74
2021/08/07 10:01:45;;;;;;;1.35;0.70;;;;;;;24.83;47.29;97766.78;5016126;28;20098;-74
2021/08/07 10:04:12;;;;;;;1.83;0.77;;;;;;;24.31;48.97;97767.38;5027649;28;20021;-74
2021/08/07 10:06:39;;;;;;;4.45;1.30;;;;;;;23.95;49.68;97776.66;5026255;28;20025;-74
2021/08/07 10:09:06;;;;;;;5.22;1.30;;;;;;;23.37;51.32;97786.63;5045454;28;20030;-74
2021/08/07 10:11:32;;;;;;;5.05;1.52;;;;;;;23.14;52.45;97779.44;5032201;28;20064;-75
2021/08/07 10:13:59;;;;;;;2.63;0.90;;;;;;;23.05;52.94;97798.63;5028181;28;20032;-74
2021/08/07 10:16:25;;;;;;;2.47;0.98;;;;;;;22.69;54.79;97791.13;5023177;28;20127;-74
2021/08/07 10:18:52;;;;;;;1.73;0.85;;;;;;;22.64;55.83;97791.22;5027861;28;20025;-74
2021/08/07 10:21:18;;;;;;;3.40;0.90;;;;;;;22.14;58.00;97790.22;5028981;28;20033;-73
2021/08/07 10:23:46;;;;;;;4.38;0.85;;;;;;;21.83;59.16;97801.78;5028602;28;20033;-73
2021/08/07 10:26:16;;;;;;;7.80;1.30;;;;;;;21.60;62.79;97798.03;5028681;28;20025;-73
2021/08/07 10:28:45;;;;;;;4.85;1.10;;;;;;;21.26;64.63;97793.56;5025208;28;20057;-73
2021/08/07 10:31:13;;;;;;;5.13;1.00;;;;;;;21.29;64.11;97787.47;5027837;28;20386;-73
2021/08/07 10:33:43;;;;;;;3.38;1.20;;;;;;;21.21;64.80;97788.94;5013005;28;20109;-74
2021/08/07 10:36:10;;;;;;;3.80;1.00;;;;;;;21.11;64.93;97780.84;5039207;28;20056;-73
2021/08/07 10:38:37;;;;;;;3.85;1.10;;;;;;;21.15;64.79;97775.59;5038535;28;20036;-74
2021/08/07 10:41:02;;;;;;;5.07;1.25;;;;;;;21.05;64.44;97770.22;5038967;28;20109;-73
2021/08/07 10:43:32;;;;;;;4.72;1.20;;;;;;;20.96;66.10;97750.84;5044109;28;20104;-74
2021/08/07 10:45:59;;;;;;;3.38;1.20;;;;;;;20.93;64.40;97765.16;5035289;28;20051;-74
2021/08/07 10:48:34;;;;;;;3.67;1.30;;;;;;;20.90;64.96;97765.75;5029159;28;20022;-74
2021/08/07 10:51:00;;;;;;;5.05;1.38;;;;;;;20.80;66.83;97750.19;5045939;28;20065;-74
2021/08/07 10:53:25;;;;;;;3.75;1.10;;;;;;;20.91;67.97;97748.16;5043819;28;20025;-74
2021/08/07 10:55:56;;;;;;;6.93;1.40;;;;;;;20.81;70.13;97751.03;5045103;28;20026;-73
2021/08/07 10:58:31;;;;;;;3.42;1.50;;;;;;;20.43;72.94;97746.25;5061520;28;20032;-73
2021/08/07 11:01:25;;;;;;;3.72;1.65;;;;;;;19.99;75.38;97755.56;5038555;28;20040;-73
2021/08/07 11:04:00;;;;;;;4.97;1.38;;;;;;;19.89;75.01;97755.66;5030460;28;20048;-73
2021/08/07 11:06:43;;;;;;;6.40;1.88;;;;;;;19.68;76.38;97733.06;5041780;28;20030;-73
2021/08/07 11:09:30;;;;;;;2.67;1.33;;;;;;;19.59;74.92;97726.53;5041063;28;20037;-73
2021/08/07 11:12:14;;;;;;;3.25;1.40;;;;;;;19.44;77.97;97728.31;5042157;28;20045;-73
2021/08/07 11:14:40;;;;;;;7.35;1.48;;;;;;;19.38;76.88;97737.66;5030398;28;20068;-74
2021/08/07 11:17:05;;;;;;;5.75;1.67;;;;;;;19.38;79.01;97747.84;5033193;28;20464;-73
2021/08/07 11:19:45;;;;;;;5.85;1.27;;;;;;;19.22;78.56;97752.63;5030550;28;20079;-73
2021/08/07 11:22:11;;;;;;;3.65;1.70;;;;;;;18.79;79.98;97764.13;5016202;28;20033;-73
2021/08/07 11:24:56;;;;;;;2.47;1.63;;;;;;;18.50;83.49;97777.66;5048355;28;20505;-73
2021/08/07 11:27:55;;;;;;;10.63;1.90;;;;;;;18.15;84.04;97779.38;5032317;28;20096;-73
2021/08/07 11:30:27;;;;;;;6.30;1.80;;;;;;;18.10;86.01;97770.38;5025768;28;20179;-73
2021/08/07 11:32:55;;;;;;;5.45;2.20;;;;;;;18.05;88.23;97773.97;5031834;28;20025;-73
2021/08/07 11:35:49;;;;;;;7.22;2.05;;;;;;;17.90;86.61;97788.50;5022771;28;20039;-73